Portada
METAR-TAF:

METAR-TAF

Aeropuertos :

Shahrekord, Irán

latitud: 32-20N, longitud: 050-51E, altitud: 2078 m

Observación

El informe se hizo hace 53 minutos, a las 16:00 UTC
Viento 8 kt del sur-suroeste
Temperatura 8°C
Humedad 15%
Presión 1025 hPa
Visibilidad 10 km o más
Escasas nubes a una altura de 4000 ft

METAR: OIFS 171600Z 21008KT 9999 FEW040 08/M17 Q1025

Hora: 20:23 (16:53 UTC)


TAF: falta

Observaciones y pronósticos meteorológicos de más de 4000 aeropuertos (mensajes METAR y TAF).

Los puntos amarillos y rojos representan las estaciones disponibles.

Ponga el ratón en el punto deseado para ver el nombre de la estación.

Haga clic para ver las observaciones y los pronósticos meteorológicos.

Para cambiar el mapa : haga clic en los botones verdes con una cruz de color negro para hacer un zoom, en el botón verde con un guión para alejar o en las flechas verdes para mapas adyacentes.


METAR-TAF: